sensor_id;sensor_type;location;lat;lon;timestamp;P1;durP1;ratioP1;P2;durP2;ratioP2
19207;SDS011;9737;59.466;18.036;2023-05-19T00:00:25;9.32;;;3.35;;
19207;SDS011;9737;59.466;18.036;2023-05-19T00:02:54;7.70;;;3.15;;
19207;SDS011;9737;59.466;18.036;2023-05-19T00:05:23;6.45;;;2.90;;
19207;SDS011;9737;59.466;18.036;2023-05-19T00:07:52;9.77;;;2.75;;
19207;SDS011;9737;59.466;18.036;2023-05-19T00:10:25;7.50;;;2.88;;
19207;SDS011;9737;59.466;18.036;2023-05-19T00:12:57;14.48;;;3.38;;
19207;SDS011;9737;59.466;18.036;2023-05-19T00:15:25;7.05;;;2.83;;
19207;SDS011;9737;59.466;18.036;2023-05-19T00:17:54;9.85;;;3.20;;
19207;SDS011;9737;59.466;18.036;2023-05-19T00:20:22;6.38;;;2.85;;
19207;SDS011;9737;59.466;18.036;2023-05-19T00:22:50;8.05;;;3.08;;
19207;SDS011;9737;59.466;18.036;2023-05-19T00:25:19;8.02;;;2.85;;
19207;SDS011;9737;59.466;18.036;2023-05-19T00:27:47;6.85;;;3.20;;
19207;SDS011;9737;59.466;18.036;2023-05-19T00:30:14;6.18;;;3.00;;
19207;SDS011;9737;59.466;18.036;2023-05-19T00:32:42;5.72;;;3.00;;
19207;SDS011;9737;59.466;18.036;2023-05-19T00:35:11;4.03;;;2.80;;
19207;SDS011;9737;59.466;18.036;2023-05-19T00:37:39;5.85;;;3.10;;
19207;SDS011;9737;59.466;18.036;2023-05-19T00:40:07;6.50;;;2.88;;
19207;SDS011;9737;59.466;18.036;2023-05-19T00:42:37;6.53;;;2.75;;
19207;SDS011;9737;59.466;18.036;2023-05-19T00:45:06;7.03;;;3.20;;
19207;SDS011;9737;59.466;18.036;2023-05-19T00:47:34;7.13;;;2.75;;
19207;SDS011;9737;59.466;18.036;2023-05-19T00:50:03;7.53;;;2.83;;
19207;SDS011;9737;59.466;18.036;2023-05-19T00:52:31;6.20;;;3.00;;
19207;SDS011;9737;59.466;18.036;2023-05-19T00:54:59;3.95;;;2.80;;
19207;SDS011;9737;59.466;18.036;2023-05-19T00:57:27;4.63;;;3.08;;
19207;SDS011;9737;59.466;18.036;2023-05-19T00:59:56;9.63;;;3.13;;
19207;SDS011;9737;59.466;18.036;2023-05-19T01:02:24;12.05;;;3.55;;
19207;SDS011;9737;59.466;18.036;2023-05-19T01:04:55;5.55;;;2.80;;
19207;SDS011;9737;59.466;18.036;2023-05-19T01:07:23;5.70;;;3.15;;
19207;SDS011;9737;59.466;18.036;2023-05-19T01:09:52;7.78;;;3.17;;
19207;SDS011;9737;59.466;18.036;2023-05-19T01:12:21;7.50;;;3.22;;
19207;SDS011;9737;59.466;18.036;2023-05-19T01:14:50;4.40;;;3.30;;
19207;SDS011;9737;59.466;18.036;2023-05-19T01:17:20;6.40;;;3.10;;
19207;SDS011;9737;59.466;18.036;2023-05-19T01:20:06;7.55;;;3.05;;
19207;SDS011;9737;59.466;18.036;2023-05-19T01:22:47;9.73;;;3.08;;
19207;SDS011;9737;59.466;18.036;2023-05-19T01:29:02;6.05;;;2.78;;
19207;SDS011;9737;59.466;18.036;2023-05-19T01:31:40;9.15;;;3.30;;
19207;SDS011;9737;59.466;18.036;2023-05-19T01:34:10;5.05;;;2.92;;
19207;SDS011;9737;59.466;18.036;2023-05-19T01:36:40;8.75;;;3.38;;
19207;SDS011;9737;59.466;18.036;2023-05-19T01:39:10;9.90;;;3.25;;
19207;SDS011;9737;59.466;18.036;2023-05-19T01:41:39;7.75;;;3.15;;
19207;SDS011;9737;59.466;18.036;2023-05-19T01:44:08;9.07;;;3.20;;
19207;SDS011;9737;59.466;18.036;2023-05-19T01:46:36;9.48;;;3.30;;
19207;SDS011;9737;59.466;18.036;2023-05-19T01:49:06;6.80;;;3.10;;
19207;SDS011;9737;59.466;18.036;2023-05-19T01:51:35;7.57;;;3.35;;
19207;SDS011;9737;59.466;18.036;2023-05-19T01:54:03;9.25;;;3.35;;
19207;SDS011;9737;59.466;18.036;2023-05-19T01:56:33;7.75;;;4.13;;
19207;SDS011;9737;59.466;18.036;2023-05-19T01:59:13;8.00;;;2.95;;
19207;SDS011;9737;59.466;18.036;2023-05-19T02:01:50;9.73;;;3.30;;
19207;SDS011;9737;59.466;18.036;2023-05-19T02:04:23;11.48;;;3.40;;
19207;SDS011;9737;59.466;18.036;2023-05-19T02:07:00;9.80;;;3.45;;
19207;SDS011;9737;59.466;18.036;2023-05-19T02:09:33;9.18;;;3.20;;
19207;SDS011;9737;59.466;18.036;2023-05-19T02:12:08;7.07;;;3.20;;
19207;SDS011;9737;59.466;18.036;2023-05-19T02:14:40;6.55;;;3.20;;
19207;SDS011;9737;59.466;18.036;2023-05-19T02:17:15;6.13;;;3.40;;
19207;SDS011;9737;59.466;18.036;2023-05-19T02:19:48;6.47;;;3.20;;
19207;SDS011;9737;59.466;18.036;2023-05-19T02:22:15;8.38;;;3.45;;
19207;SDS011;9737;59.466;18.036;2023-05-19T02:24:43;8.05;;;3.33;;
19207;SDS011;9737;59.466;18.036;2023-05-19T02:27:16;5.88;;;3.40;;
19207;SDS011;9737;59.466;18.036;2023-05-19T02:32:22;8.35;;;3.30;;
19207;SDS011;9737;59.466;18.036;2023-05-19T02:35:03;8.65;;;3.28;;
19207;SDS011;9737;59.466;18.036;2023-05-19T02:37:34;10.13;;;3.28;;
19207;SDS011;9737;59.466;18.036;2023-05-19T02:40:02;7.63;;;3.50;;
19207;SDS011;9737;59.466;18.036;2023-05-19T02:42:30;7.25;;;3.42;;
19207;SDS011;9737;59.466;18.036;2023-05-19T02:44:58;5.93;;;3.20;;
19207;SDS011;9737;59.466;18.036;2023-05-19T02:47:27;8.60;;;3.13;;
19207;SDS011;9737;59.466;18.036;2023-05-19T02:49:54;9.55;;;3.75;;
19207;SDS011;9737;59.466;18.036;2023-05-19T02:52:24;8.70;;;3.30;;
19207;SDS011;9737;59.466;18.036;2023-05-19T02:54:51;6.53;;;3.60;;
19207;SDS011;9737;59.466;18.036;2023-05-19T02:57:19;11.02;;;3.33;;
19207;SDS011;9737;59.466;18.036;2023-05-19T02:59:47;13.35;;;3.63;;
19207;SDS011;9737;59.466;18.036;2023-05-19T03:02:15;6.97;;;3.53;;
19207;SDS011;9737;59.466;18.036;2023-05-19T03:04:43;7.18;;;3.67;;
19207;SDS011;9737;59.466;18.036;2023-05-19T03:07:10;10.23;;;3.60;;
19207;SDS011;9737;59.466;18.036;2023-05-19T03:09:42;8.05;;;3.70;;
19207;SDS011;9737;59.466;18.036;2023-05-19T03:12:10;12.43;;;3.55;;
19207;SDS011;9737;59.466;18.036;2023-05-19T03:14:37;9.18;;;3.70;;
19207;SDS011;9737;59.466;18.036;2023-05-19T03:17:06;12.40;;;4.18;;
19207;SDS011;9737;59.466;18.036;2023-05-19T03:19:35;11.80;;;3.67;;
19207;SDS011;9737;59.466;18.036;2023-05-19T03:22:03;7.22;;;3.65;;
19207;SDS011;9737;59.466;18.036;2023-05-19T03:24:32;13.70;;;3.75;;
19207;SDS011;9737;59.466;18.036;2023-05-19T03:27:01;7.47;;;3.80;;
19207;SDS011;9737;59.466;18.036;2023-05-19T03:29:30;9.25;;;3.55;;
19207;SDS011;9737;59.466;18.036;2023-05-19T03:31:58;11.25;;;3.67;;
19207;SDS011;9737;59.466;18.036;2023-05-19T03:34:27;10.35;;;3.95;;
19207;SDS011;9737;59.466;18.036;2023-05-19T03:36:55;13.98;;;4.50;;
19207;SDS011;9737;59.466;18.036;2023-05-19T03:39:22;12.40;;;3.83;;
19207;SDS011;9737;59.466;18.036;2023-05-19T03:41:50;8.82;;;4.07;;
19207;SDS011;9737;59.466;18.036;2023-05-19T03:44:19;9.13;;;3.78;;
19207;SDS011;9737;59.466;18.036;2023-05-19T03:46:48;13.48;;;3.60;;
19207;SDS011;9737;59.466;18.036;2023-05-19T03:49:15;12.90;;;3.47;;
19207;SDS011;9737;59.466;18.036;2023-05-19T03:51:43;9.75;;;3.78;;
19207;SDS011;9737;59.466;18.036;2023-05-19T03:54:11;12.18;;;3.80;;
19207;SDS011;9737;59.466;18.036;2023-05-19T03:56:40;15.55;;;4.85;;
19207;SDS011;9737;59.466;18.036;2023-05-19T03:59:09;12.65;;;4.90;;
19207;SDS011;9737;59.466;18.036;2023-05-19T04:01:39;16.20;;;5.43;;
19207;SDS011;9737;59.466;18.036;2023-05-19T04:04:07;18.80;;;5.32;;
19207;SDS011;9737;59.466;18.036;2023-05-19T04:06:35;22.70;;;5.57;;
19207;SDS011;9737;59.466;18.036;2023-05-19T04:09:09;29.27;;;5.75;;
19207;SDS011;9737;59.466;18.036;2023-05-19T04:11:38;23.80;;;4.93;;
19207;SDS011;9737;59.466;18.036;2023-05-19T04:14:06;10.45;;;4.60;;
19207;SDS011;9737;59.466;18.036;2023-05-19T04:16:34;16.77;;;4.60;;
19207;SDS011;9737;59.466;18.036;2023-05-19T04:19:04;26.65;;;4.28;;
19207;SDS011;9737;59.466;18.036;2023-05-19T04:21:32;13.80;;;3.97;;
19207;SDS011;9737;59.466;18.036;2023-05-19T04:24:00;13.90;;;4.15;;
19207;SDS011;9737;59.466;18.036;2023-05-19T04:26:28;12.43;;;3.50;;
19207;SDS011;9737;59.466;18.036;2023-05-19T04:28:59;10.13;;;3.28;;
19207;SDS011;9737;59.466;18.036;2023-05-19T04:31:29;6.60;;;3.10;;
19207;SDS011;9737;59.466;18.036;2023-05-19T04:34:00;13.10;;;4.20;;
19207;SDS011;9737;59.466;18.036;2023-05-19T04:36:29;13.60;;;3.42;;
19207;SDS011;9737;59.466;18.036;2023-05-19T04:38:57;9.90;;;2.88;;
19207;SDS011;9737;59.466;18.036;2023-05-19T04:41:27;11.90;;;2.83;;
19207;SDS011;9737;59.466;18.036;2023-05-19T04:43:56;15.52;;;3.13;;
19207;SDS011;9737;59.466;18.036;2023-05-19T04:46:24;11.23;;;3.17;;
19207;SDS011;9737;59.466;18.036;2023-05-19T04:48:55;13.63;;;3.03;;
19207;SDS011;9737;59.466;18.036;2023-05-19T04:51:23;11.00;;;2.70;;
19207;SDS011;9737;59.466;18.036;2023-05-19T04:53:57;6.43;;;2.60;;
19207;SDS011;9737;59.466;18.036;2023-05-19T04:56:25;9.73;;;2.53;;
19207;SDS011;9737;59.466;18.036;2023-05-19T04:58:54;6.72;;;2.80;;
19207;SDS011;9737;59.466;18.036;2023-05-19T05:01:22;11.20;;;2.55;;
19207;SDS011;9737;59.466;18.036;2023-05-19T05:03:51;10.45;;;2.40;;
19207;SDS011;9737;59.466;18.036;2023-05-19T05:06:21;9.27;;;2.33;;
19207;SDS011;9737;59.466;18.036;2023-05-19T05:08:49;9.50;;;2.67;;
19207;SDS011;9737;59.466;18.036;2023-05-19T05:11:19;12.55;;;3.05;;
19207;SDS011;9737;59.466;18.036;2023-05-19T05:13:47;8.57;;;2.40;;
19207;SDS011;9737;59.466;18.036;2023-05-19T05:16:16;11.57;;;2.47;;
19207;SDS011;9737;59.466;18.036;2023-05-19T05:18:44;10.02;;;2.47;;
19207;SDS011;9737;59.466;18.036;2023-05-19T05:21:13;8.32;;;2.40;;
19207;SDS011;9737;59.466;18.036;2023-05-19T05:23:41;10.57;;;2.30;;
19207;SDS011;9737;59.466;18.036;2023-05-19T05:26:13;11.95;;;2.20;;
19207;SDS011;9737;59.466;18.036;2023-05-19T05:28:45;7.47;;;1.98;;
19207;SDS011;9737;59.466;18.036;2023-05-19T05:31:13;8.60;;;2.10;;
19207;SDS011;9737;59.466;18.036;2023-05-19T05:33:41;7.68;;;2.20;;
19207;SDS011;9737;59.466;18.036;2023-05-19T05:36:12;9.90;;;2.20;;
19207;SDS011;9737;59.466;18.036;2023-05-19T05:41:58;3.33;;;1.80;;
19207;SDS011;9737;59.466;18.036;2023-05-19T05:44:27;8.55;;;2.22;;
19207;SDS011;9737;59.466;18.036;2023-05-19T05:46:55;5.63;;;2.10;;
19207;SDS011;9737;59.466;18.036;2023-05-19T05:49:24;5.03;;;1.88;;
19207;SDS011;9737;59.466;18.036;2023-05-19T05:51:52;7.03;;;2.30;;
19207;SDS011;9737;59.466;18.036;2023-05-19T05:54:31;10.18;;;1.95;;
19207;SDS011;9737;59.466;18.036;2023-05-19T05:57:00;3.80;;;1.90;;
19207;SDS011;9737;59.466;18.036;2023-05-19T05:59:30;4.45;;;1.80;;
19207;SDS011;9737;59.466;18.036;2023-05-19T06:01:59;8.05;;;1.60;;
19207;SDS011;9737;59.466;18.036;2023-05-19T06:04:27;6.05;;;2.17;;
19207;SDS011;9737;59.466;18.036;2023-05-19T06:06:55;5.35;;;1.73;;
19207;SDS011;9737;59.466;18.036;2023-05-19T06:09:27;8.32;;;1.73;;
19207;SDS011;9737;59.466;18.036;2023-05-19T06:11:56;5.32;;;1.77;;
19207;SDS011;9737;59.466;18.036;2023-05-19T06:14:25;3.20;;;1.70;;
19207;SDS011;9737;59.466;18.036;2023-05-19T06:16:54;7.45;;;1.73;;
19207;SDS011;9737;59.466;18.036;2023-05-19T06:19:22;7.82;;;1.80;;
19207;SDS011;9737;59.466;18.036;2023-05-19T06:21:51;10.95;;;1.88;;
19207;SDS011;9737;59.466;18.036;2023-05-19T06:24:18;8.48;;;1.77;;
19207;SDS011;9737;59.466;18.036;2023-05-19T06:26:46;3.88;;;1.60;;
19207;SDS011;9737;59.466;18.036;2023-05-19T06:29:14;4.72;;;1.55;;
19207;SDS011;9737;59.466;18.036;2023-05-19T06:31:42;5.47;;;1.48;;
19207;SDS011;9737;59.466;18.036;2023-05-19T06:34:11;3.58;;;1.52;;
19207;SDS011;9737;59.466;18.036;2023-05-19T06:36:42;4.63;;;1.50;;
19207;SDS011;9737;59.466;18.036;2023-05-19T06:39:10;3.88;;;1.75;;
19207;SDS011;9737;59.466;18.036;2023-05-19T06:41:38;3.85;;;1.67;;
19207;SDS011;9737;59.466;18.036;2023-05-19T06:44:06;5.07;;;1.98;;
19207;SDS011;9737;59.466;18.036;2023-05-19T06:46:34;4.30;;;1.27;;
19207;SDS011;9737;59.466;18.036;2023-05-19T06:49:02;6.40;;;1.80;;
19207;SDS011;9737;59.466;18.036;2023-05-19T06:51:31;4.45;;;1.52;;
19207;SDS011;9737;59.466;18.036;2023-05-19T06:54:00;4.05;;;1.73;;
19207;SDS011;9737;59.466;18.036;2023-05-19T06:56:28;4.80;;;1.85;;
19207;SDS011;9737;59.466;18.036;2023-05-19T06:58:56;2.40;;;1.60;;
19207;SDS011;9737;59.466;18.036;2023-05-19T07:01:24;4.88;;;1.38;;
19207;SDS011;9737;59.466;18.036;2023-05-19T07:03:53;3.15;;;1.58;;
19207;SDS011;9737;59.466;18.036;2023-05-19T07:06:21;4.60;;;1.63;;
19207;SDS011;9737;59.466;18.036;2023-05-19T07:08:50;2.72;;;1.52;;
19207;SDS011;9737;59.466;18.036;2023-05-19T07:11:18;3.35;;;1.75;;
19207;SDS011;9737;59.466;18.036;2023-05-19T07:13:47;5.70;;;1.58;;
19207;SDS011;9737;59.466;18.036;2023-05-19T07:16:15;2.47;;;1.40;;
19207;SDS011;9737;59.466;18.036;2023-05-19T07:18:43;5.50;;;1.50;;
19207;SDS011;9737;59.466;18.036;2023-05-19T07:21:10;5.18;;;1.60;;
19207;SDS011;9737;59.466;18.036;2023-05-19T07:23:38;3.35;;;1.55;;
19207;SDS011;9737;59.466;18.036;2023-05-19T07:26:07;5.15;;;1.40;;
19207;SDS011;9737;59.466;18.036;2023-05-19T07:28:35;7.50;;;1.52;;
19207;SDS011;9737;59.466;18.036;2023-05-19T07:31:07;4.15;;;1.23;;
19207;SDS011;9737;59.466;18.036;2023-05-19T07:33:35;4.80;;;1.38;;
19207;SDS011;9737;59.466;18.036;2023-05-19T07:36:04;4.35;;;1.42;;
19207;SDS011;9737;59.466;18.036;2023-05-19T07:38:32;4.45;;;1.63;;
19207;SDS011;9737;59.466;18.036;2023-05-19T07:41:01;8.18;;;1.63;;
19207;SDS011;9737;59.466;18.036;2023-05-19T07:43:31;4.93;;;1.75;;
19207;SDS011;9737;59.466;18.036;2023-05-19T07:45:59;4.22;;;1.73;;
19207;SDS011;9737;59.466;18.036;2023-05-19T07:48:27;5.30;;;1.65;;
19207;SDS011;9737;59.466;18.036;2023-05-19T07:50:55;5.13;;;1.80;;
19207;SDS011;9737;59.466;18.036;2023-05-19T07:53:23;2.55;;;1.40;;
19207;SDS011;9737;59.466;18.036;2023-05-19T07:55:51;1.73;;;1.02;;
19207;SDS011;9737;59.466;18.036;2023-05-19T07:58:21;2.00;;;1.35;;
19207;SDS011;9737;59.466;18.036;2023-05-19T08:00:50;2.55;;;1.40;;
19207;SDS011;9737;59.466;18.036;2023-05-19T08:03:18;2.08;;;1.35;;
19207;SDS011;9737;59.466;18.036;2023-05-19T08:05:48;4.15;;;1.40;;
19207;SDS011;9737;59.466;18.036;2023-05-19T08:08:16;3.13;;;1.40;;
19207;SDS011;9737;59.466;18.036;2023-05-19T08:10:44;2.53;;;1.30;;
19207;SDS011;9737;59.466;18.036;2023-05-19T08:13:12;3.70;;;1.30;;
19207;SDS011;9737;59.466;18.036;2023-05-19T08:15:41;8.00;;;1.50;;
19207;SDS011;9737;59.466;18.036;2023-05-19T08:18:10;3.55;;;1.58;;
19207;SDS011;9737;59.466;18.036;2023-05-19T08:20:38;3.88;;;1.60;;
19207;SDS011;9737;59.466;18.036;2023-05-19T08:23:06;3.22;;;1.45;;
19207;SDS011;9737;59.466;18.036;2023-05-19T08:25:33;2.72;;;1.40;;
19207;SDS011;9737;59.466;18.036;2023-05-19T08:28:01;2.58;;;1.42;;
19207;SDS011;9737;59.466;18.036;2023-05-19T08:30:29;3.30;;;1.35;;
19207;SDS011;9737;59.466;18.036;2023-05-19T08:32:58;6.30;;;1.52;;
19207;SDS011;9737;59.466;18.036;2023-05-19T08:35:28;5.68;;;1.55;;
19207;SDS011;9737;59.466;18.036;2023-05-19T08:37:55;5.25;;;1.50;;
19207;SDS011;9737;59.466;18.036;2023-05-19T08:40:23;4.47;;;1.63;;
19207;SDS011;9737;59.466;18.036;2023-05-19T08:42:52;5.90;;;1.88;;
19207;SDS011;9737;59.466;18.036;2023-05-19T08:45:20;2.63;;;1.50;;
19207;SDS011;9737;59.466;18.036;2023-05-19T08:47:48;3.42;;;1.50;;
19207;SDS011;9737;59.466;18.036;2023-05-19T08:50:19;4.97;;;1.55;;
19207;SDS011;9737;59.466;18.036;2023-05-19T08:52:54;4.78;;;1.30;;
19207;SDS011;9737;59.466;18.036;2023-05-19T08:55:30;2.90;;;1.40;;
19207;SDS011;9737;59.466;18.036;2023-05-19T08:58:02;6.03;;;1.55;;
19207;SDS011;9737;59.466;18.036;2023-05-19T09:00:31;4.38;;;1.40;;
19207;SDS011;9737;59.466;18.036;2023-05-19T09:02:59;4.47;;;1.50;;
19207;SDS011;9737;59.466;18.036;2023-05-19T09:05:43;3.53;;;1.30;;
19207;SDS011;9737;59.466;18.036;2023-05-19T09:08:13;3.97;;;1.20;;
19207;SDS011;9737;59.466;18.036;2023-05-19T09:10:41;3.38;;;1.30;;
19207;SDS011;9737;59.466;18.036;2023-05-19T09:13:09;6.75;;;1.65;;
19207;SDS011;9737;59.466;18.036;2023-05-19T09:15:37;6.15;;;1.58;;
19207;SDS011;9737;59.466;18.036;2023-05-19T09:18:06;5.50;;;1.35;;
19207;SDS011;9737;59.466;18.036;2023-05-19T09:20:36;7.88;;;1.60;;
19207;SDS011;9737;59.466;18.036;2023-05-19T09:23:05;3.45;;;1.50;;
19207;SDS011;9737;59.466;18.036;2023-05-19T09:25:35;3.50;;;1.40;;
19207;SDS011;9737;59.466;18.036;2023-05-19T09:28:03;3.15;;;1.40;;
19207;SDS011;9737;59.466;18.036;2023-05-19T09:30:36;1.67;;;1.30;;
19207;SDS011;9737;59.466;18.036;2023-05-19T09:33:05;3.60;;;1.40;;
19207;SDS011;9737;59.466;18.036;2023-05-19T09:35:35;5.25;;;1.30;;
19207;SDS011;9737;59.466;18.036;2023-05-19T09:38:03;2.92;;;1.38;;
19207;SDS011;9737;59.466;18.036;2023-05-19T09:40:31;4.13;;;1.38;;
19207;SDS011;9737;59.466;18.036;2023-05-19T09:43:01;4.82;;;1.33;;
19207;SDS011;9737;59.466;18.036;2023-05-19T09:45:31;3.45;;;1.40;;
19207;SDS011;9737;59.466;18.036;2023-05-19T09:48:02;6.40;;;1.63;;
19207;SDS011;9737;59.466;18.036;2023-05-19T09:50:31;2.95;;;1.33;;
19207;SDS011;9737;59.466;18.036;2023-05-19T09:52:59;3.03;;;1.30;;
19207;SDS011;9737;59.466;18.036;2023-05-19T09:55:28;3.30;;;1.27;;
19207;SDS011;9737;59.466;18.036;2023-05-19T09:57:58;4.72;;;1.40;;
19207;SDS011;9737;59.466;18.036;2023-05-19T10:00:31;3.70;;;1.30;;
19207;SDS011;9737;59.466;18.036;2023-05-19T10:03:00;5.80;;;1.52;;
19207;SDS011;9737;59.466;18.036;2023-05-19T10:05:31;3.67;;;1.52;;
19207;SDS011;9737;59.466;18.036;2023-05-19T10:08:00;6.88;;;1.42;;
19207;SDS011;9737;59.466;18.036;2023-05-19T10:10:32;5.43;;;1.50;;
19207;SDS011;9737;59.466;18.036;2023-05-19T10:13:01;4.97;;;1.23;;
19207;SDS011;9737;59.466;18.036;2023-05-19T10:15:31;4.20;;;1.55;;
19207;SDS011;9737;59.466;18.036;2023-05-19T10:18:12;6.05;;;1.52;;
19207;SDS011;9737;59.466;18.036;2023-05-19T10:20:42;6.72;;;1.70;;
19207;SDS011;9737;59.466;18.036;2023-05-19T10:23:10;4.13;;;1.60;;
19207;SDS011;9737;59.466;18.036;2023-05-19T10:25:38;6.65;;;1.48;;
19207;SDS011;9737;59.466;18.036;2023-05-19T10:28:07;4.10;;;1.33;;
19207;SDS011;9737;59.466;18.036;2023-05-19T10:30:39;3.67;;;1.50;;
19207;SDS011;9737;59.466;18.036;2023-05-19T10:33:12;3.22;;;1.45;;
19207;SDS011;9737;59.466;18.036;2023-05-19T10:35:53;5.28;;;1.50;;
19207;SDS011;9737;59.466;18.036;2023-05-19T10:38:45;3.35;;;1.45;;
19207;SDS011;9737;59.466;18.036;2023-05-19T10:41:18;5.18;;;1.48;;
19207;SDS011;9737;59.466;18.036;2023-05-19T10:43:55;6.38;;;1.80;;
19207;SDS011;9737;59.466;18.036;2023-05-19T10:46:32;4.68;;;1.48;;
19207;SDS011;9737;59.466;18.036;2023-05-19T10:49:00;5.63;;;1.42;;
19207;SDS011;9737;59.466;18.036;2023-05-19T10:51:29;4.20;;;1.35;;
19207;SDS011;9737;59.466;18.036;2023-05-19T10:54:00;4.60;;;1.80;;
19207;SDS011;9737;59.466;18.036;2023-05-19T10:56:29;5.10;;;1.50;;
19207;SDS011;9737;59.466;18.036;2023-05-19T10:59:00;4.38;;;1.73;;
19207;SDS011;9737;59.466;18.036;2023-05-19T11:01:29;4.60;;;1.40;;
19207;SDS011;9737;59.466;18.036;2023-05-19T11:04:04;6.05;;;1.90;;
19207;SDS011;9737;59.466;18.036;2023-05-19T11:06:34;4.90;;;1.85;;
19207;SDS011;9737;59.466;18.036;2023-05-19T11:09:09;5.80;;;1.60;;
19207;SDS011;9737;59.466;18.036;2023-05-19T11:11:43;6.65;;;2.00;;
19207;SDS011;9737;59.466;18.036;2023-05-19T11:14:13;7.93;;;1.92;;
19207;SDS011;9737;59.466;18.036;2023-05-19T11:16:44;8.15;;;1.80;;
19207;SDS011;9737;59.466;18.036;2023-05-19T11:19:19;8.60;;;2.15;;
19207;SDS011;9737;59.466;18.036;2023-05-19T11:21:54;6.35;;;2.17;;
19207;SDS011;9737;59.466;18.036;2023-05-19T11:24:32;8.32;;;1.90;;
19207;SDS011;9737;59.466;18.036;2023-05-19T11:27:19;6.35;;;1.70;;
19207;SDS011;9737;59.466;18.036;2023-05-19T11:29:49;5.72;;;1.70;;
19207;SDS011;9737;59.466;18.036;2023-05-19T11:32:18;6.82;;;1.80;;
19207;SDS011;9737;59.466;18.036;2023-05-19T11:34:49;5.63;;;1.85;;
19207;SDS011;9737;59.466;18.036;2023-05-19T11:37:17;4.97;;;1.58;;
19207;SDS011;9737;59.466;18.036;2023-05-19T11:39:46;4.15;;;1.67;;
19207;SDS011;9737;59.466;18.036;2023-05-19T11:42:14;5.00;;;1.60;;
19207;SDS011;9737;59.466;18.036;2023-05-19T11:44:43;5.95;;;1.90;;
19207;SDS011;9737;59.466;18.036;2023-05-19T11:47:12;5.03;;;1.60;;
19207;SDS011;9737;59.466;18.036;2023-05-19T11:49:41;7.82;;;1.67;;
19207;SDS011;9737;59.466;18.036;2023-05-19T11:52:11;6.75;;;1.55;;
19207;SDS011;9737;59.466;18.036;2023-05-19T11:54:39;6.60;;;1.50;;
19207;SDS011;9737;59.466;18.036;2023-05-19T11:57:08;4.53;;;1.60;;
19207;SDS011;9737;59.466;18.036;2023-05-19T11:59:37;5.22;;;1.70;;
19207;SDS011;9737;59.466;18.036;2023-05-19T12:02:14;5.10;;;1.67;;
19207;SDS011;9737;59.466;18.036;2023-05-19T12:04:43;5.03;;;1.50;;
19207;SDS011;9737;59.466;18.036;2023-05-19T12:07:13;6.05;;;1.73;;
19207;SDS011;9737;59.466;18.036;2023-05-19T12:09:43;3.05;;;1.35;;
19207;SDS011;9737;59.466;18.036;2023-05-19T12:12:12;5.55;;;1.75;;
19207;SDS011;9737;59.466;18.036;2023-05-19T12:14:42;6.88;;;1.83;;
19207;SDS011;9737;59.466;18.036;2023-05-19T12:17:12;5.55;;;1.35;;
19207;SDS011;9737;59.466;18.036;2023-05-19T12:19:42;3.97;;;1.60;;
19207;SDS011;9737;59.466;18.036;2023-05-19T12:22:10;4.57;;;1.30;;
19207;SDS011;9737;59.466;18.036;2023-05-19T12:24:41;3.25;;;1.52;;
19207;SDS011;9737;59.466;18.036;2023-05-19T12:27:10;4.47;;;1.42;;
19207;SDS011;9737;59.466;18.036;2023-05-19T12:29:39;5.07;;;1.40;;
19207;SDS011;9737;59.466;18.036;2023-05-19T12:32:07;7.38;;;1.25;;
19207;SDS011;9737;59.466;18.036;2023-05-19T12:34:36;4.57;;;1.30;;
19207;SDS011;9737;59.466;18.036;2023-05-19T12:37:06;4.95;;;1.67;;
19207;SDS011;9737;59.466;18.036;2023-05-19T12:39:35;4.80;;;1.40;;
19207;SDS011;9737;59.466;18.036;2023-05-19T12:42:06;4.65;;;1.50;;
19207;SDS011;9737;59.466;18.036;2023-05-19T12:44:35;4.13;;;1.40;;
19207;SDS011;9737;59.466;18.036;2023-05-19T12:47:04;5.45;;;1.42;;
19207;SDS011;9737;59.466;18.036;2023-05-19T12:49:33;4.68;;;1.45;;
19207;SDS011;9737;59.466;18.036;2023-05-19T12:52:01;6.57;;;1.58;;
19207;SDS011;9737;59.466;18.036;2023-05-19T12:54:37;4.13;;;1.67;;
19207;SDS011;9737;59.466;18.036;2023-05-19T12:57:07;4.25;;;1.52;;
19207;SDS011;9737;59.466;18.036;2023-05-19T12:59:37;4.35;;;1.50;;
19207;SDS011;9737;59.466;18.036;2023-05-19T13:02:05;4.18;;;1.55;;
19207;SDS011;9737;59.466;18.036;2023-05-19T13:04:34;5.20;;;1.50;;
19207;SDS011;9737;59.466;18.036;2023-05-19T13:07:02;4.78;;;1.55;;
19207;SDS011;9737;59.466;18.036;2023-05-19T13:09:30;2.88;;;1.33;;
19207;SDS011;9737;59.466;18.036;2023-05-19T13:12:00;4.95;;;1.50;;
19207;SDS011;9737;59.466;18.036;2023-05-19T13:14:31;4.82;;;1.40;;
19207;SDS011;9737;59.466;18.036;2023-05-19T13:16:59;4.25;;;1.05;;
19207;SDS011;9737;59.466;18.036;2023-05-19T13:19:27;5.25;;;1.27;;
19207;SDS011;9737;59.466;18.036;2023-05-19T13:21:55;3.08;;;1.10;;
19207;SDS011;9737;59.466;18.036;2023-05-19T13:24:24;5.20;;;1.20;;
19207;SDS011;9737;59.466;18.036;2023-05-19T13:26:52;5.38;;;1.60;;
19207;SDS011;9737;59.466;18.036;2023-05-19T13:29:21;4.63;;;1.20;;
19207;SDS011;9737;59.466;18.036;2023-05-19T13:31:50;5.30;;;1.40;;
19207;SDS011;9737;59.466;18.036;2023-05-19T13:34:18;4.10;;;1.40;;
19207;SDS011;9737;59.466;18.036;2023-05-19T13:36:46;4.13;;;1.42;;
19207;SDS011;9737;59.466;18.036;2023-05-19T13:39:14;3.78;;;1.30;;
19207;SDS011;9737;59.466;18.036;2023-05-19T13:41:42;3.38;;;1.20;;
19207;SDS011;9737;59.466;18.036;2023-05-19T13:44:10;3.45;;;1.40;;
19207;SDS011;9737;59.466;18.036;2023-05-19T13:46:38;2.50;;;1.10;;
19207;SDS011;9737;59.466;18.036;2023-05-19T13:49:13;1.95;;;1.15;;
19207;SDS011;9737;59.466;18.036;2023-05-19T13:51:41;3.15;;;1.30;;
19207;SDS011;9737;59.466;18.036;2023-05-19T13:54:09;3.28;;;1.50;;
19207;SDS011;9737;59.466;18.036;2023-05-19T13:56:37;2.58;;;1.00;;
19207;SDS011;9737;59.466;18.036;2023-05-19T13:59:05;7.70;;;1.27;;
19207;SDS011;9737;59.466;18.036;2023-05-19T14:01:33;6.10;;;1.30;;
19207;SDS011;9737;59.466;18.036;2023-05-19T14:04:02;3.17;;;1.13;;
19207;SDS011;9737;59.466;18.036;2023-05-19T14:06:32;3.80;;;1.42;;
19207;SDS011;9737;59.466;18.036;2023-05-19T14:09:00;2.67;;;1.17;;
19207;SDS011;9737;59.466;18.036;2023-05-19T14:11:28;3.95;;;1.55;;
19207;SDS011;9737;59.466;18.036;2023-05-19T14:13:56;3.45;;;1.40;;
19207;SDS011;9737;59.466;18.036;2023-05-19T14:16:24;5.47;;;1.48;;
19207;SDS011;9737;59.466;18.036;2023-05-19T14:18:54;3.45;;;1.33;;
19207;SDS011;9737;59.466;18.036;2023-05-19T14:21:22;4.03;;;1.35;;
19207;SDS011;9737;59.466;18.036;2023-05-19T14:23:52;3.85;;;1.35;;
19207;SDS011;9737;59.466;18.036;2023-05-19T14:26:20;5.13;;;1.35;;
19207;SDS011;9737;59.466;18.036;2023-05-19T14:28:48;2.92;;;1.45;;
19207;SDS011;9737;59.466;18.036;2023-05-19T14:31:16;7.65;;;1.50;;
19207;SDS011;9737;59.466;18.036;2023-05-19T14:33:44;4.80;;;1.30;;
19207;SDS011;9737;59.466;18.036;2023-05-19T14:36:12;4.78;;;1.08;;
19207;SDS011;9737;59.466;18.036;2023-05-19T14:38:40;3.28;;;1.08;;
19207;SDS011;9737;59.466;18.036;2023-05-19T14:41:11;4.22;;;1.20;;
19207;SDS011;9737;59.466;18.036;2023-05-19T14:43:39;5.18;;;1.17;;
19207;SDS011;9737;59.466;18.036;2023-05-19T14:46:08;2.28;;;1.30;;
19207;SDS011;9737;59.466;18.036;2023-05-19T14:48:36;4.78;;;1.10;;
19207;SDS011;9737;59.466;18.036;2023-05-19T14:51:04;5.95;;;1.35;;
19207;SDS011;9737;59.466;18.036;2023-05-19T14:53:32;5.35;;;1.10;;
19207;SDS011;9737;59.466;18.036;2023-05-19T14:56:00;5.30;;;1.20;;
19207;SDS011;9737;59.466;18.036;2023-05-19T14:58:30;5.85;;;1.40;;
19207;SDS011;9737;59.466;18.036;2023-05-19T15:00:58;3.40;;;1.30;;
19207;SDS011;9737;59.466;18.036;2023-05-19T15:03:26;4.72;;;2.22;;
19207;SDS011;9737;59.466;18.036;2023-05-19T15:05:54;4.55;;;1.13;;
19207;SDS011;9737;59.466;18.036;2023-05-19T15:08:22;2.78;;;1.42;;